createdAt,value
2022-08-21T00:00:25.818Z,101406.16
2022-08-21T00:02:55.930Z,101396.38
2022-08-21T00:05:25.813Z,101402.56
2022-08-21T00:07:54.088Z,101388.31
2022-08-21T00:10:23.225Z,101399.38
2022-08-21T00:12:52.172Z,101386.03
2022-08-21T00:15:23.187Z,101391.69
2022-08-21T00:17:51.177Z,101390.41
2022-08-21T00:20:19.676Z,101381.25
2022-08-21T00:22:49.544Z,101376.88
2022-08-21T00:25:17.838Z,101373.66
2022-08-21T00:27:48.013Z,101367.72
2022-08-21T00:30:23.383Z,101377.25
2022-08-21T00:32:52.501Z,101372.63
2022-08-21T00:35:28.681Z,101372.91
2022-08-21T00:37:58.158Z,101369.47
2022-08-21T00:40:33.173Z,101372.94
2022-08-21T00:43:01.574Z,101371.00
2022-08-21T00:45:31.089Z,101377.59
2022-08-21T00:47:59.389Z,101370.25
2022-08-21T00:50:32.246Z,101368.44
2022-08-21T00:53:03.203Z,101372.50
2022-08-21T00:55:32.059Z,101367.00
2022-08-21T00:58:03.070Z,101365.00
2022-08-21T01:00:34.075Z,101378.28
2022-08-21T01:03:07.422Z,101377.91
2022-08-21T01:05:37.244Z,101372.22
2022-08-21T01:08:07.380Z,101369.94
2022-08-21T01:10:36.120Z,101375.03
2022-08-21T01:13:07.997Z,101372.66
2022-08-21T01:15:39.658Z,101374.47
2022-08-21T01:18:09.241Z,101379.25
2022-08-21T01:20:39.426Z,101372.31
2022-08-21T01:23:08.858Z,101376.88
2022-08-21T01:25:37.754Z,101373.66
2022-08-21T01:28:16.363Z,101376.53
2022-08-21T01:30:45.730Z,101367.06
2022-08-21T01:33:13.721Z,101381.69
2022-08-21T01:35:41.740Z,101364.03
2022-08-21T01:38:11.286Z,101377.00
2022-08-21T01:40:39.331Z,101368.44
2022-08-21T01:43:07.639Z,101370.22
2022-08-21T01:45:35.666Z,101361.59
2022-08-21T01:48:03.991Z,101364.19
2022-08-21T01:50:32.535Z,101360.94
2022-08-21T01:53:00.598Z,101362.19
2022-08-21T01:55:30.100Z,101364.78
2022-08-21T01:57:59.500Z,101362.22
2022-08-21T02:00:28.012Z,101359.19
2022-08-21T02:02:57.551Z,101358.72
2022-08-21T02:05:25.656Z,101353.56
2022-08-21T02:07:56.534Z,101364.78
2022-08-21T02:10:25.894Z,101363.16
2022-08-21T02:12:56.181Z,101359.78
2022-08-21T02:15:24.960Z,101350.41
2022-08-21T02:17:55.984Z,101341.66
2022-08-21T02:20:26.236Z,101349.25
2022-08-21T02:22:55.266Z,101353.84
2022-08-21T02:25:24.793Z,101339.50
2022-08-21T02:27:53.489Z,101349.72
2022-08-21T02:30:25.404Z,101350.25
2022-08-21T02:32:53.820Z,101345.44
2022-08-21T02:35:22.409Z,101348.66
2022-08-21T02:37:52.793Z,101350.72
2022-08-21T02:40:22.713Z,101342.13
2022-08-21T02:42:51.008Z,101342.41
2022-08-21T02:45:20.032Z,101333.94
2022-08-21T02:47:54.394Z,101341.66
2022-08-21T02:50:28.298Z,101344.47
2022-08-21T02:52:57.155Z,101341.03
2022-08-21T02:55:27.984Z,101341.25
2022-08-21T02:57:56.769Z,101342.38
2022-08-21T03:00:26.928Z,101340.91
2022-08-21T03:02:57.343Z,101334.84
2022-08-21T03:05:26.979Z,101330.09
2022-08-21T03:07:55.772Z,101339.16
2022-08-21T03:10:25.986Z,101328.44
2022-08-21T03:12:55.481Z,101334.94
2022-08-21T03:15:25.924Z,101334.78
2022-08-21T03:17:55.566Z,101329.34
2022-08-21T03:20:28.357Z,101322.56
2022-08-21T03:22:57.568Z,101320.22
2022-08-21T03:25:39.749Z,101313.09
2022-08-21T03:28:13.187Z,101317.25
2022-08-21T03:30:42.383Z,101316.44
2022-08-21T03:33:13.276Z,101323.75
2022-08-21T03:35:46.243Z,101322.00
2022-08-21T03:38:15.128Z,101327.03
2022-08-21T03:40:43.715Z,101311.41
2022-08-21T03:43:11.881Z,101310.72
2022-08-21T03:45:40.940Z,101316.75
2022-08-21T03:48:10.229Z,101319.13
2022-08-21T03:50:41.527Z,101320.88
2022-08-21T03:53:16.649Z,101321.88
2022-08-21T03:55:46.793Z,101321.53
2022-08-21T03:58:16.494Z,101322.72
2022-08-21T04:00:45.497Z,101315.94
2022-08-21T04:03:13.660Z,101315.56
2022-08-21T04:05:42.572Z,101321.28
2022-08-21T04:08:12.037Z,101324.31
2022-08-21T04:10:41.114Z,101329.16
2022-08-21T04:13:10.602Z,101338.03
2022-08-21T04:15:38.656Z,101331.34
2022-08-21T04:18:07.081Z,101328.66
2022-08-21T04:20:35.701Z,101327.34
2022-08-21T04:23:04.059Z,101327.50
2022-08-21T04:25:33.618Z,101331.19
2022-08-21T04:28:02.840Z,101339.19
2022-08-21T04:30:30.923Z,101321.16
2022-08-21T04:32:59.834Z,101333.34
2022-08-21T04:35:29.358Z,101330.09
2022-08-21T04:37:57.457Z,101332.41
2022-08-21T04:40:26.977Z,101343.66
2022-08-21T04:42:59.893Z,101332.81
2022-08-21T04:45:30.250Z,101336.31
2022-08-21T04:48:00.673Z,101327.38
2022-08-21T04:50:32.165Z,101334.09
2022-08-21T04:53:00.739Z,101330.22
2022-08-21T04:55:29.485Z,101341.00
2022-08-21T04:57:59.282Z,101350.50
2022-08-21T05:00:27.710Z,101339.97
2022-08-21T05:03:00.159Z,101338.28
2022-08-21T05:05:30.295Z,101341.25
2022-08-21T05:07:59.356Z,101347.84
2022-08-21T05:10:27.696Z,101338.09
2022-08-21T05:12:55.886Z,101340.97
2022-08-21T05:15:25.451Z,101351.13
2022-08-21T05:18:00.978Z,101358.88
2022-08-21T05:20:30.049Z,101349.81
2022-08-21T05:22:58.791Z,101349.97
2022-08-21T05:25:28.121Z,101354.44
2022-08-21T05:27:58.100Z,101350.13
2022-08-21T05:30:30.020Z,101354.84
2022-08-21T05:33:00.258Z,101360.44
2022-08-21T05:35:29.607Z,101356.31
2022-08-21T05:37:57.893Z,101346.69
2022-08-21T05:40:26.383Z,101351.00
2022-08-21T05:42:55.880Z,101353.06
2022-08-21T05:45:41.943Z,101352.38
2022-08-21T05:48:16.718Z,101355.19
2022-08-21T05:50:45.359Z,101354.38
2022-08-21T05:53:13.496Z,101355.25
2022-08-21T05:55:45.876Z,101354.25
2022-08-21T05:58:15.195Z,101351.75
2022-08-21T06:00:43.376Z,101350.81
2022-08-21T06:03:18.135Z,101354.91
2022-08-21T06:05:46.710Z,101354.34
2022-08-21T06:08:16.707Z,101345.53
2022-08-21T06:10:44.682Z,101345.78
2022-08-21T06:13:13.311Z,101349.84
2022-08-21T06:15:41.555Z,101348.00
2022-08-21T06:18:09.773Z,101337.38
2022-08-21T06:20:39.979Z,101349.44
2022-08-21T06:23:08.074Z,101346.53
2022-08-21T06:25:36.371Z,101350.13
2022-08-21T06:28:06.322Z,101349.72
2022-08-21T06:30:34.847Z,101353.72
2022-08-21T06:33:03.450Z,101350.25
2022-08-21T06:35:31.968Z,101346.03
2022-08-21T06:38:01.461Z,101337.31
2022-08-21T06:40:30.830Z,101341.91
2022-08-21T06:43:07.944Z,101343.72
2022-08-21T06:45:36.008Z,101341.94
2022-08-21T06:48:04.592Z,101339.97
2022-08-21T06:50:33.328Z,101343.66
2022-08-21T06:53:07.098Z,101346.25
2022-08-21T06:55:35.262Z,101331.28
2022-08-21T06:58:03.529Z,101328.94
2022-08-21T07:00:31.719Z,101320.06
2022-08-21T07:03:00.066Z,101333.81
2022-08-21T07:05:29.218Z,101324.56
2022-08-21T07:07:58.042Z,101326.97
2022-08-21T07:10:27.967Z,101327.69
2022-08-21T07:13:00.521Z,101330.47
2022-08-21T07:15:30.843Z,101325.50
2022-08-21T07:18:00.231Z,101324.28
2022-08-21T07:20:29.253Z,101322.22
2022-08-21T07:22:58.057Z,101325.94
2022-08-21T07:25:27.713Z,101323.00
2022-08-21T07:27:55.768Z,101327.25
2022-08-21T07:30:24.241Z,101324.50
2022-08-21T07:32:52.679Z,101313.25
2022-08-21T07:35:21.662Z,101332.72
2022-08-21T07:37:49.903Z,101315.91
2022-08-21T07:40:19.228Z,101322.88
2022-08-21T07:42:52.742Z,101322.56
2022-08-21T07:45:21.959Z,101317.25
2022-08-21T07:47:53.047Z,101325.22
2022-08-21T07:50:24.753Z,101320.78
2022-08-21T07:52:52.778Z,101324.09
2022-08-21T07:55:26.207Z,101324.44
2022-08-21T07:57:55.664Z,101325.56
2022-08-21T08:00:25.923Z,101331.47
2022-08-21T08:02:57.908Z,101328.16
2022-08-21T08:05:28.757Z,101321.34
2022-08-21T08:07:57.088Z,101318.03
2022-08-21T08:10:25.854Z,101319.25
2022-08-21T08:12:56.655Z,101325.03
2022-08-21T08:15:26.211Z,101324.22
2022-08-21T08:17:55.897Z,101314.00
2022-08-21T08:20:27.758Z,101330.44
2022-08-21T08:22:57.326Z,101320.88
2022-08-21T08:25:27.067Z,101318.50
2022-08-21T08:27:56.685Z,101305.47
2022-08-21T08:30:26.527Z,101316.97
2022-08-21T08:33:00.941Z,101315.75
2022-08-21T08:35:31.151Z,101301.19
2022-08-21T08:37:59.717Z,101305.53
2022-08-21T08:40:36.869Z,101310.06
2022-08-21T08:43:08.544Z,101304.16
2022-08-21T08:45:45.150Z,101315.81
2022-08-21T08:48:16.354Z,101297.00
2022-08-21T08:50:49.923Z,101301.63
2022-08-21T08:53:23.280Z,101292.88
2022-08-21T08:55:54.177Z,101300.13
2022-08-21T08:58:31.276Z,101311.03
2022-08-21T09:01:00.305Z,101303.13
2022-08-21T09:03:29.319Z,101308.41
2022-08-21T09:06:07.696Z,101300.97
2022-08-21T09:08:50.785Z,101296.31
2022-08-21T09:11:27.981Z,101282.91
2022-08-21T09:14:07.304Z,101299.47
2022-08-21T09:16:43.480Z,101299.69
2022-08-21T09:19:25.048Z,101297.81
2022-08-21T09:22:02.678Z,101293.94
2022-08-21T09:24:34.241Z,101297.72
2022-08-21T09:27:07.218Z,101299.59
2022-08-21T09:29:42.888Z,101297.84
2022-08-21T09:32:18.663Z,101287.75
2022-08-21T09:34:58.530Z,101290.81
2022-08-21T09:37:27.690Z,101280.91
2022-08-21T09:39:55.940Z,101280.13
2022-08-21T09:42:27.099Z,101285.63
2022-08-21T09:45:13.664Z,101280.34
2022-08-21T09:47:42.527Z,101285.78
2022-08-21T09:50:13.368Z,101280.44
2022-08-21T09:52:47.744Z,101282.41
2022-08-21T09:55:43.609Z,101281.28
2022-08-21T09:58:15.922Z,101276.00
2022-08-21T10:00:45.661Z,101279.88
2022-08-21T10:03:17.361Z,101282.44
2022-08-21T10:05:58.389Z,101268.50
2022-08-21T10:08:30.405Z,101270.78
2022-08-21T10:11:06.282Z,101269.16
2022-08-21T10:13:47.025Z,101281.53
2022-08-21T10:16:26.890Z,101276.19
2022-08-21T10:19:03.854Z,101273.91
2022-08-21T10:21:36.342Z,101280.06
2022-08-21T10:24:09.552Z,101276.91
2022-08-21T10:26:47.041Z,101269.56
2022-08-21T10:29:26.362Z,101272.00
2022-08-21T10:32:00.086Z,101265.56
2022-08-21T10:34:39.880Z,101274.13
2022-08-21T10:37:17.045Z,101265.59
2022-08-21T10:39:51.478Z,101267.72
2022-08-21T10:42:28.640Z,101251.41
2022-08-21T10:45:06.541Z,101264.94
2022-08-21T10:47:38.191Z,101279.47
2022-08-21T10:50:13.120Z,101261.09
2022-08-21T10:52:55.983Z,101267.06
2022-08-21T10:55:28.341Z,101264.06
2022-08-21T10:58:00.655Z,101277.56
2022-08-21T11:00:32.527Z,101265.72
2022-08-21T11:03:05.280Z,101267.47
2022-08-21T11:05:35.815Z,101269.41
2022-08-21T11:08:09.066Z,101259.91
2022-08-21T11:10:51.171Z,101260.19
2022-08-21T11:13:31.852Z,101267.81
2022-08-21T11:16:04.969Z,101275.84
2022-08-21T11:18:37.768Z,101263.91
2022-08-21T11:21:13.210Z,101276.69
2022-08-21T11:23:45.986Z,101281.16
2022-08-21T11:26:20.470Z,101276.66
2022-08-21T11:28:53.510Z,101274.78
2022-08-21T11:31:42.882Z,101275.34
2022-08-21T11:34:20.742Z,101275.72
2022-08-21T11:36:55.330Z,101279.84
2022-08-21T11:39:28.095Z,101260.66
2022-08-21T11:42:08.756Z,101273.38
2022-08-21T11:44:48.562Z,101270.16
2022-08-21T11:47:20.198Z,101263.16
2022-08-21T11:49:56.053Z,101262.06
2022-08-21T11:52:30.935Z,101278.47
2022-08-21T11:55:03.134Z,101267.22
2022-08-21T11:57:36.791Z,101267.31
2022-08-21T12:00:09.538Z,101270.84
2022-08-21T12:02:55.839Z,101261.72
2022-08-21T12:05:30.418Z,101269.31
2022-08-21T12:08:11.815Z,101264.41
2022-08-21T12:10:42.445Z,101269.53
2022-08-21T12:13:39.785Z,101272.00
2022-08-21T12:16:14.088Z,101270.97
2022-08-21T12:18:42.751Z,101279.31
2022-08-21T12:21:23.915Z,101272.38
2022-08-21T12:24:03.224Z,101279.84
2022-08-21T12:26:33.312Z,101273.19
2022-08-21T12:29:13.730Z,101276.56
2022-08-21T12:31:52.684Z,101280.09
2022-08-21T12:34:22.359Z,101267.16
2022-08-21T12:36:56.136Z,101276.16
2022-08-21T12:39:27.922Z,101271.28
2022-08-21T12:42:01.939Z,101266.25
2022-08-21T12:44:36.789Z,101269.41
2022-08-21T12:47:08.076Z,101258.34
2022-08-21T12:49:38.855Z,101257.06
2022-08-21T12:52:13.896Z,101244.63
2022-08-21T12:54:43.751Z,101264.63
2022-08-21T12:57:20.934Z,101269.22
2022-08-21T12:59:57.690Z,101259.22
2022-08-21T13:02:29.126Z,101260.56
2022-08-21T13:04:58.275Z,101263.28
2022-08-21T13:07:33.237Z,101261.09
2022-08-21T13:10:03.955Z,101257.25
2022-08-21T13:12:32.830Z,101261.25
2022-08-21T13:15:08.301Z,101256.78
2022-08-21T13:17:50.495Z,101251.59
2022-08-21T13:20:24.633Z,101257.75
2022-08-21T13:22:54.103Z,101261.63
2022-08-21T13:25:27.391Z,101259.09
2022-08-21T13:28:01.896Z,101247.66
2022-08-21T13:30:31.614Z,101247.75
2022-08-21T13:33:01.982Z,101253.38
2022-08-21T13:35:32.904Z,101255.31
2022-08-21T13:38:03.238Z,101247.78
2022-08-21T13:40:35.160Z,101245.81
2022-08-21T13:43:03.590Z,101243.94
2022-08-21T13:45:35.190Z,101244.09
2022-08-21T13:48:06.150Z,101237.78
2022-08-21T13:50:36.802Z,101247.78
2022-08-21T13:53:08.604Z,101250.41
2022-08-21T13:55:39.256Z,101251.59
2022-08-21T13:58:08.115Z,101254.28
2022-08-21T14:00:38.048Z,101253.00
2022-08-21T14:03:09.205Z,101246.25
2022-08-21T14:05:39.417Z,101239.72
2022-08-21T14:08:13.207Z,101246.16
2022-08-21T14:10:46.112Z,101250.03
2022-08-21T14:13:30.639Z,101247.63
2022-08-21T14:16:00.123Z,101236.97
2022-08-21T14:18:28.228Z,101245.28
2022-08-21T14:21:07.342Z,101248.63
2022-08-21T14:23:36.739Z,101239.22
2022-08-21T14:26:06.927Z,101244.00
2022-08-21T14:28:36.511Z,101251.75
2022-08-21T14:31:14.931Z,101235.59
2022-08-21T14:33:43.008Z,101236.81
2022-08-21T14:36:11.345Z,101239.16
2022-08-21T14:38:42.669Z,101244.44
2022-08-21T14:41:17.992Z,101246.38
2022-08-21T14:43:46.405Z,101242.75
2022-08-21T14:46:15.935Z,101243.75
2022-08-21T14:48:44.066Z,101248.41
2022-08-21T14:51:12.398Z,101243.91
2022-08-21T14:53:41.999Z,101246.88
2022-08-21T14:56:10.022Z,101246.69
2022-08-21T14:58:40.450Z,101253.69
2022-08-21T15:01:09.577Z,101250.06
2022-08-21T15:03:37.779Z,101242.25
2022-08-21T15:06:07.580Z,101238.50
2022-08-21T15:08:35.757Z,101248.31
2022-08-21T15:11:12.081Z,101250.59
2022-08-21T15:13:42.774Z,101245.19
2022-08-21T15:16:11.203Z,101239.09
2022-08-21T15:18:39.317Z,101248.69
2022-08-21T15:21:07.783Z,101248.50
2022-08-21T15:23:35.973Z,101242.97
2022-08-21T15:26:10.043Z,101238.31
2022-08-21T15:28:39.117Z,101242.16
2022-08-21T15:31:07.462Z,101245.13
2022-08-21T15:33:36.067Z,101238.03
2022-08-21T15:36:04.479Z,101236.59
2022-08-21T15:38:32.520Z,101245.56
2022-08-21T15:41:00.617Z,101248.44
2022-08-21T15:43:32.090Z,101253.31
2022-08-21T15:46:01.350Z,101246.13
2022-08-21T15:48:29.597Z,101244.06
2022-08-21T15:50:57.679Z,101240.78
2022-08-21T15:53:25.814Z,101248.44
2022-08-21T15:55:53.872Z,101241.81
2022-08-21T15:58:22.044Z,101253.19
2022-08-21T16:00:51.372Z,101244.81
2022-08-21T16:03:22.694Z,101246.84
2022-08-21T16:05:53.268Z,101246.78
2022-08-21T16:08:21.686Z,101240.50
2022-08-21T16:10:52.408Z,101245.56
2022-08-21T16:13:23.574Z,101246.38
2022-08-21T16:15:52.959Z,101245.16
2022-08-21T16:18:21.751Z,101249.50
2022-08-21T16:20:49.902Z,101252.78
2022-08-21T16:23:17.935Z,101248.22
2022-08-21T16:25:45.874Z,101246.34
2022-08-21T16:28:16.560Z,101240.56
2022-08-21T16:30:45.440Z,101243.56
2022-08-21T16:33:25.009Z,101251.41
2022-08-21T16:35:53.155Z,101249.78
2022-08-21T16:38:21.246Z,101245.63
2022-08-21T16:40:49.427Z,101250.56
2022-08-21T16:43:18.207Z,101254.97
2022-08-21T16:45:46.256Z,101247.56
2022-08-21T16:48:15.608Z,101250.84
2022-08-21T16:50:46.851Z,101246.28
2022-08-21T16:53:17.180Z,101256.13
2022-08-21T16:55:45.401Z,101258.81
2022-08-21T16:58:16.848Z,101248.31
2022-08-21T17:00:45.227Z,101252.44
2022-08-21T17:03:17.667Z,101243.13
2022-08-21T17:05:45.743Z,101241.78
2022-08-21T17:08:13.770Z,101244.16
2022-08-21T17:10:44.963Z,101242.00
2022-08-21T17:13:12.971Z,101257.59
2022-08-21T17:15:41.373Z,101258.22
2022-08-21T17:18:12.165Z,101257.78
2022-08-21T17:20:42.073Z,101270.03
2022-08-21T17:23:10.582Z,101273.78
2022-08-21T17:25:40.047Z,101271.91
2022-08-21T17:28:09.695Z,101271.78
2022-08-21T17:30:38.089Z,101288.56
2022-08-21T17:33:06.059Z,101276.44
2022-08-21T17:35:34.049Z,101286.16
2022-08-21T17:38:03.402Z,101278.97
2022-08-21T17:40:32.510Z,101278.34
2022-08-21T17:43:05.574Z,101284.72
2022-08-21T17:45:33.726Z,101286.31
2022-08-21T17:48:05.461Z,101286.28
2022-08-21T17:50:33.448Z,101293.94
2022-08-21T17:53:01.463Z,101296.28
2022-08-21T17:55:31.334Z,101295.00
2022-08-21T17:58:02.183Z,101295.91
2022-08-21T18:00:31.406Z,101290.94
2022-08-21T18:03:02.314Z,101291.78
2022-08-21T18:05:30.648Z,101299.97
2022-08-21T18:08:01.040Z,101307.41
2022-08-21T18:10:30.685Z,101307.47
2022-08-21T18:12:59.185Z,101304.44
2022-08-21T18:15:27.414Z,101309.16
2022-08-21T18:17:55.545Z,101309.09
2022-08-21T18:20:24.657Z,101309.94
2022-08-21T18:22:52.843Z,101310.09
2022-08-21T18:25:21.793Z,101318.91
2022-08-21T18:27:52.459Z,101321.28
2022-08-21T18:30:22.589Z,101323.13
2022-08-21T18:32:50.951Z,101324.06
2022-08-21T18:35:19.028Z,101324.97
2022-08-21T18:37:46.995Z,101323.63
2022-08-21T18:40:15.837Z,101328.81
2022-08-21T18:42:55.144Z,101327.25
2022-08-21T18:45:25.467Z,101321.94
2022-08-21T18:47:55.146Z,101329.03
2022-08-21T18:50:26.660Z,101326.38
2022-08-21T18:52:55.015Z,101327.66
2022-08-21T18:58:13.207Z,101343.22
2022-08-21T19:00:47.520Z,101348.09
2022-08-21T19:03:23.737Z,101341.91
2022-08-21T19:05:52.476Z,101340.69
2022-08-21T19:08:22.946Z,101347.13
2022-08-21T19:10:53.126Z,101347.50
2022-08-21T19:13:22.476Z,101356.69
2022-08-21T19:15:53.776Z,101354.59
2022-08-21T19:18:28.181Z,101354.84
2022-08-21T19:20:57.527Z,101346.38
2022-08-21T19:23:29.398Z,101351.31
2022-08-21T19:26:00.447Z,101353.63
2022-08-21T19:28:31.339Z,101349.59
2022-08-21T19:31:05.341Z,101353.69
2022-08-21T19:33:35.493Z,101350.84
2022-08-21T19:36:03.691Z,101358.56
2022-08-21T19:38:31.860Z,101353.09
2022-08-21T19:41:00.360Z,101345.97
2022-08-21T19:43:29.236Z,101352.09
2022-08-21T19:45:58.442Z,101351.03
2022-08-21T19:48:28.089Z,101351.53
2022-08-21T19:50:56.103Z,101356.78
2022-08-21T19:53:24.189Z,101360.41
2022-08-21T19:55:52.260Z,101364.38
2022-08-21T19:58:35.497Z,101351.78
2022-08-21T20:01:05.520Z,101352.44
2022-08-21T20:03:43.204Z,101361.34
2022-08-21T20:06:11.944Z,101362.69
2022-08-21T20:08:39.957Z,101362.72
2022-08-21T20:11:08.776Z,101378.56
2022-08-21T20:13:37.124Z,101374.47
2022-08-21T20:16:07.929Z,101374.28
2022-08-21T20:18:40.565Z,101380.09
2022-08-21T20:21:13.346Z,101369.72
2022-08-21T20:23:43.103Z,101377.78
2022-08-21T20:26:17.524Z,101381.69
2022-08-21T20:28:46.555Z,101384.91
2022-08-21T20:31:20.104Z,101388.88
2022-08-21T20:33:49.575Z,101385.47
2022-08-21T20:36:19.199Z,101385.03
2022-08-21T20:38:48.265Z,101389.75
2022-08-21T20:41:21.128Z,101389.69
2022-08-21T20:43:59.048Z,101385.69
2022-08-21T20:46:28.322Z,101384.25
2022-08-21T20:48:56.531Z,101394.81
2022-08-21T20:51:29.860Z,101397.00
2022-08-21T20:54:04.025Z,101391.50
2022-08-21T20:56:39.478Z,101395.00
2022-08-21T20:59:17.677Z,101375.06
2022-08-21T21:01:47.921Z,101382.16
2022-08-21T21:04:25.623Z,101382.28
2022-08-21T21:09:45.907Z,101391.69
2022-08-21T21:12:17.274Z,101392.13
2022-08-21T21:14:46.974Z,101393.81
2022-08-21T21:17:18.411Z,101395.00
2022-08-21T21:20:00.095Z,101393.88
2022-08-21T21:22:32.603Z,101390.63
2022-08-21T21:25:06.120Z,101395.75
2022-08-21T21:27:36.838Z,101394.31
2022-08-21T21:30:12.108Z,101400.28
2022-08-21T21:32:42.644Z,101389.94
2022-08-21T21:35:14.506Z,101397.34
2022-08-21T21:37:49.822Z,101390.88
2022-08-21T21:40:36.829Z,101392.50
2022-08-21T21:43:11.069Z,101398.31
2022-08-21T21:45:43.772Z,101406.19
2022-08-21T21:51:13.425Z,101394.66
2022-08-21T21:53:53.362Z,101399.53
2022-08-21T21:56:27.483Z,101397.00
2022-08-21T21:59:18.363Z,101401.31
2022-08-21T22:01:50.717Z,101397.75
2022-08-21T22:04:24.268Z,101405.63
2022-08-21T22:07:03.816Z,101410.84
2022-08-21T22:09:41.877Z,101410.03
2022-08-21T22:12:28.016Z,101408.56
2022-08-21T22:14:56.202Z,101408.84
2022-08-21T22:17:34.991Z,101411.16
2022-08-21T22:20:07.636Z,101418.53
2022-08-21T22:22:40.792Z,101417.78
2022-08-21T22:25:18.453Z,101423.09
2022-08-21T22:27:48.931Z,101417.34
2022-08-21T22:30:18.826Z,101414.75
2022-08-21T22:32:50.436Z,101415.25
2022-08-21T22:35:21.128Z,101425.97
2022-08-21T22:37:52.684Z,101418.72
2022-08-21T22:40:26.293Z,101412.59
2022-08-21T22:43:03.875Z,101410.22
2022-08-21T22:45:57.239Z,101414.13
2022-08-21T22:48:29.322Z,101407.63
2022-08-21T22:51:03.749Z,101402.25
2022-08-21T22:53:36.073Z,101415.41
2022-08-21T22:56:07.668Z,101412.47
2022-08-21T22:58:38.595Z,101408.53
2022-08-21T23:01:29.972Z,101414.03
2022-08-21T23:03:59.583Z,101423.53
2022-08-21T23:06:31.874Z,101414.25
2022-08-21T23:09:00.774Z,101419.03
2022-08-21T23:11:39.916Z,101405.97
2022-08-21T23:14:08.432Z,101409.16
2022-08-21T23:16:48.253Z,101413.19
2022-08-21T23:19:22.154Z,101404.03
2022-08-21T23:21:55.194Z,101413.13
2022-08-21T23:24:52.668Z,101416.97
2022-08-21T23:27:35.950Z,101415.47
2022-08-21T23:30:08.284Z,101414.34
2022-08-21T23:33:04.284Z,101417.41
2022-08-21T23:36:00.313Z,101418.16
2022-08-21T23:38:40.101Z,101418.88
2022-08-21T23:41:18.907Z,101413.59
2022-08-21T23:44:10.556Z,101421.41
2022-08-21T23:46:51.014Z,101425.97
2022-08-21T23:49:29.447Z,101424.28
2022-08-21T23:52:07.597Z,101418.97
2022-08-21T23:54:44.761Z,101418.44
